sensor_id;sensor_type;location;lat;lon;timestamp;P1;durP1;ratioP1;P2;durP2;ratioP2
82985;SDS011;72786;53.546;9.910;2023-11-18T00:00:20;7.80;;;4.07;;
82985;SDS011;72786;53.546;9.910;2023-11-18T00:02:46;7.97;;;3.17;;
82985;SDS011;72786;53.546;9.910;2023-11-18T00:05:13;8.40;;;3.92;;
82985;SDS011;72786;53.546;9.910;2023-11-18T00:07:42;8.15;;;3.45;;
82985;SDS011;72786;53.546;9.910;2023-11-18T00:10:09;6.05;;;3.13;;
82985;SDS011;72786;53.546;9.910;2023-11-18T00:12:36;6.22;;;3.10;;
82985;SDS011;72786;53.546;9.910;2023-11-18T00:15:03;7.32;;;3.60;;
82985;SDS011;72786;53.546;9.910;2023-11-18T00:17:30;6.22;;;3.33;;
82985;SDS011;72786;53.546;9.910;2023-11-18T00:19:58;6.80;;;3.05;;
82985;SDS011;72786;53.546;9.910;2023-11-18T00:22:24;9.60;;;4.35;;
82985;SDS011;72786;53.546;9.910;2023-11-18T00:24:51;6.53;;;3.15;;
82985;SDS011;72786;53.546;9.910;2023-11-18T00:27:18;7.35;;;3.35;;
82985;SDS011;72786;53.546;9.910;2023-11-18T00:29:45;6.63;;;3.15;;
82985;SDS011;72786;53.546;9.910;2023-11-18T00:32:11;6.95;;;3.08;;
82985;SDS011;72786;53.546;9.910;2023-11-18T00:34:38;8.93;;;4.20;;
82985;SDS011;72786;53.546;9.910;2023-11-18T00:37:04;7.38;;;3.63;;
82985;SDS011;72786;53.546;9.910;2023-11-18T00:39:31;7.00;;;3.05;;
82985;SDS011;72786;53.546;9.910;2023-11-18T00:41:57;9.52;;;4.03;;
82985;SDS011;72786;53.546;9.910;2023-11-18T00:44:24;10.30;;;3.95;;
82985;SDS011;72786;53.546;9.910;2023-11-18T00:46:50;6.65;;;3.42;;
82985;SDS011;72786;53.546;9.910;2023-11-18T00:49:17;6.95;;;3.17;;
82985;SDS011;72786;53.546;9.910;2023-11-18T00:51:43;7.38;;;3.33;;
82985;SDS011;72786;53.546;9.910;2023-11-18T00:54:10;7.82;;;3.53;;
82985;SDS011;72786;53.546;9.910;2023-11-18T00:56:37;6.45;;;3.25;;
82985;SDS011;72786;53.546;9.910;2023-11-18T00:59:03;8.80;;;3.75;;
82985;SDS011;72786;53.546;9.910;2023-11-18T01:01:32;6.82;;;3.30;;
82985;SDS011;72786;53.546;9.910;2023-11-18T01:04:00;7.93;;;3.42;;
82985;SDS011;72786;53.546;9.910;2023-11-18T01:06:27;8.48;;;3.75;;
82985;SDS011;72786;53.546;9.910;2023-11-18T01:08:53;7.18;;;3.30;;
82985;SDS011;72786;53.546;9.910;2023-11-18T01:11:20;7.75;;;3.53;;
82985;SDS011;72786;53.546;9.910;2023-11-18T01:13:46;7.25;;;3.65;;
82985;SDS011;72786;53.546;9.910;2023-11-18T01:16:13;6.05;;;3.03;;
82985;SDS011;72786;53.546;9.910;2023-11-18T01:18:41;7.63;;;3.65;;
82985;SDS011;72786;53.546;9.910;2023-11-18T01:21:09;7.65;;;4.00;;
82985;SDS011;72786;53.546;9.910;2023-11-18T01:23:35;7.53;;;3.67;;
82985;SDS011;72786;53.546;9.910;2023-11-18T01:26:03;6.90;;;3.42;;
82985;SDS011;72786;53.546;9.910;2023-11-18T01:28:33;7.10;;;3.55;;
82985;SDS011;72786;53.546;9.910;2023-11-18T01:31:03;6.57;;;3.10;;
82985;SDS011;72786;53.546;9.910;2023-11-18T01:33:30;6.03;;;3.33;;
82985;SDS011;72786;53.546;9.910;2023-11-18T01:35:58;6.78;;;3.28;;
82985;SDS011;72786;53.546;9.910;2023-11-18T01:38:25;6.28;;;3.35;;
82985;SDS011;72786;53.546;9.910;2023-11-18T01:40:52;6.35;;;2.95;;
82985;SDS011;72786;53.546;9.910;2023-11-18T01:43:19;8.60;;;3.67;;
82985;SDS011;72786;53.546;9.910;2023-11-18T01:45:48;7.78;;;3.10;;
82985;SDS011;72786;53.546;9.910;2023-11-18T01:48:14;6.97;;;3.65;;
82985;SDS011;72786;53.546;9.910;2023-11-18T01:50:41;6.93;;;3.28;;
82985;SDS011;72786;53.546;9.910;2023-11-18T01:53:09;8.77;;;3.60;;
82985;SDS011;72786;53.546;9.910;2023-11-18T01:55:37;8.88;;;3.75;;
82985;SDS011;72786;53.546;9.910;2023-11-18T01:58:04;7.68;;;3.85;;
82985;SDS011;72786;53.546;9.910;2023-11-18T02:00:38;7.93;;;3.53;;
82985;SDS011;72786;53.546;9.910;2023-11-18T02:03:07;8.77;;;4.32;;
82985;SDS011;72786;53.546;9.910;2023-11-18T02:05:36;7.60;;;3.58;;
82985;SDS011;72786;53.546;9.910;2023-11-18T02:08:03;8.90;;;3.72;;
82985;SDS011;72786;53.546;9.910;2023-11-18T02:10:39;7.18;;;3.55;;
82985;SDS011;72786;53.546;9.910;2023-11-18T02:13:25;7.88;;;3.95;;
82985;SDS011;72786;53.546;9.910;2023-11-18T02:15:56;9.23;;;3.58;;
82985;SDS011;72786;53.546;9.910;2023-11-18T02:18:24;10.48;;;4.35;;
82985;SDS011;72786;53.546;9.910;2023-11-18T02:20:56;10.02;;;4.15;;
82985;SDS011;72786;53.546;9.910;2023-11-18T02:23:26;7.70;;;4.05;;
82985;SDS011;72786;53.546;9.910;2023-11-18T02:25:53;8.77;;;3.80;;
82985;SDS011;72786;53.546;9.910;2023-11-18T02:28:22;8.20;;;3.92;;
82985;SDS011;72786;53.546;9.910;2023-11-18T02:30:50;7.28;;;3.80;;
82985;SDS011;72786;53.546;9.910;2023-11-18T02:33:27;10.10;;;4.00;;
82985;SDS011;72786;53.546;9.910;2023-11-18T02:36:05;8.63;;;4.43;;
82985;SDS011;72786;53.546;9.910;2023-11-18T02:38:52;7.43;;;3.67;;
82985;SDS011;72786;53.546;9.910;2023-11-18T02:41:21;8.07;;;4.10;;
82985;SDS011;72786;53.546;9.910;2023-11-18T02:43:49;8.60;;;4.30;;
82985;SDS011;72786;53.546;9.910;2023-11-18T02:46:17;8.45;;;3.90;;
82985;SDS011;72786;53.546;9.910;2023-11-18T02:48:45;6.95;;;3.42;;
82985;SDS011;72786;53.546;9.910;2023-11-18T02:51:12;7.05;;;3.45;;
82985;SDS011;72786;53.546;9.910;2023-11-18T02:53:39;7.95;;;4.03;;
82985;SDS011;72786;53.546;9.910;2023-11-18T02:56:07;9.65;;;4.28;;
82985;SDS011;72786;53.546;9.910;2023-11-18T02:58:34;7.32;;;4.00;;
82985;SDS011;72786;53.546;9.910;2023-11-18T03:01:00;7.03;;;3.60;;
82985;SDS011;72786;53.546;9.910;2023-11-18T03:03:27;7.32;;;3.50;;
82985;SDS011;72786;53.546;9.910;2023-11-18T03:05:54;9.05;;;4.25;;
82985;SDS011;72786;53.546;9.910;2023-11-18T03:08:21;10.48;;;4.18;;
82985;SDS011;72786;53.546;9.910;2023-11-18T03:10:48;8.77;;;3.90;;
82985;SDS011;72786;53.546;9.910;2023-11-18T03:13:17;8.02;;;4.25;;
82985;SDS011;72786;53.546;9.910;2023-11-18T03:15:43;9.80;;;4.18;;
82985;SDS011;72786;53.546;9.910;2023-11-18T03:18:10;7.75;;;4.25;;
82985;SDS011;72786;53.546;9.910;2023-11-18T03:20:37;8.98;;;4.13;;
82985;SDS011;72786;53.546;9.910;2023-11-18T03:23:04;7.82;;;3.88;;
82985;SDS011;72786;53.546;9.910;2023-11-18T03:25:33;8.30;;;4.32;;
82985;SDS011;72786;53.546;9.910;2023-11-18T03:28:00;7.72;;;4.50;;
82985;SDS011;72786;53.546;9.910;2023-11-18T03:30:27;9.80;;;3.83;;
82985;SDS011;72786;53.546;9.910;2023-11-18T03:32:55;9.60;;;4.13;;
82985;SDS011;72786;53.546;9.910;2023-11-18T03:35:21;9.82;;;4.75;;
82985;SDS011;72786;53.546;9.910;2023-11-18T03:37:50;9.30;;;4.68;;
82985;SDS011;72786;53.546;9.910;2023-11-18T03:40:18;10.23;;;4.72;;
82985;SDS011;72786;53.546;9.910;2023-11-18T03:42:44;10.10;;;5.00;;
82985;SDS011;72786;53.546;9.910;2023-11-18T03:45:14;9.63;;;4.40;;
82985;SDS011;72786;53.546;9.910;2023-11-18T03:47:41;10.20;;;4.65;;
82985;SDS011;72786;53.546;9.910;2023-11-18T03:50:08;10.65;;;4.57;;
82985;SDS011;72786;53.546;9.910;2023-11-18T03:52:36;9.68;;;4.50;;
82985;SDS011;72786;53.546;9.910;2023-11-18T03:55:04;11.23;;;4.90;;
82985;SDS011;72786;53.546;9.910;2023-11-18T03:57:31;14.00;;;5.32;;
82985;SDS011;72786;53.546;9.910;2023-11-18T03:59:58;9.75;;;4.40;;
82985;SDS011;72786;53.546;9.910;2023-11-18T04:02:24;9.50;;;4.63;;
82985;SDS011;72786;53.546;9.910;2023-11-18T04:04:51;10.73;;;4.80;;
82985;SDS011;72786;53.546;9.910;2023-11-18T04:07:18;12.07;;;5.00;;
82985;SDS011;72786;53.546;9.910;2023-11-18T04:09:44;11.48;;;4.97;;
82985;SDS011;72786;53.546;9.910;2023-11-18T04:12:11;10.02;;;5.18;;
82985;SDS011;72786;53.546;9.910;2023-11-18T04:14:37;9.60;;;4.72;;
82985;SDS011;72786;53.546;9.910;2023-11-18T04:17:04;9.93;;;5.18;;
82985;SDS011;72786;53.546;9.910;2023-11-18T04:19:30;11.73;;;4.85;;
82985;SDS011;72786;53.546;9.910;2023-11-18T04:21:57;12.00;;;5.00;;
82985;SDS011;72786;53.546;9.910;2023-11-18T04:24:23;12.48;;;5.22;;
82985;SDS011;72786;53.546;9.910;2023-11-18T04:26:50;10.30;;;4.53;;
82985;SDS011;72786;53.546;9.910;2023-11-18T04:29:16;11.52;;;5.10;;
82985;SDS011;72786;53.546;9.910;2023-11-18T04:31:44;11.15;;;5.30;;
82985;SDS011;72786;53.546;9.910;2023-11-18T04:34:10;11.55;;;5.32;;
82985;SDS011;72786;53.546;9.910;2023-11-18T04:36:37;11.20;;;5.20;;
82985;SDS011;72786;53.546;9.910;2023-11-18T04:39:04;13.52;;;5.35;;
82985;SDS011;72786;53.546;9.910;2023-11-18T04:41:30;9.80;;;4.53;;
82985;SDS011;72786;53.546;9.910;2023-11-18T04:43:58;10.18;;;5.07;;
82985;SDS011;72786;53.546;9.910;2023-11-18T04:46:25;11.63;;;4.88;;
82985;SDS011;72786;53.546;9.910;2023-11-18T04:48:52;12.93;;;4.78;;
82985;SDS011;72786;53.546;9.910;2023-11-18T04:51:21;14.55;;;5.55;;
82985;SDS011;72786;53.546;9.910;2023-11-18T04:53:48;12.63;;;5.28;;
82985;SDS011;72786;53.546;9.910;2023-11-18T04:56:15;13.57;;;5.40;;
82985;SDS011;72786;53.546;9.910;2023-11-18T04:58:44;11.95;;;5.07;;
82985;SDS011;72786;53.546;9.910;2023-11-18T05:01:13;11.45;;;4.82;;
82985;SDS011;72786;53.546;9.910;2023-11-18T05:03:40;13.23;;;5.65;;
82985;SDS011;72786;53.546;9.910;2023-11-18T05:06:07;14.30;;;5.28;;
82985;SDS011;72786;53.546;9.910;2023-11-18T05:08:34;11.93;;;5.22;;
82985;SDS011;72786;53.546;9.910;2023-11-18T05:11:03;16.35;;;5.30;;
82985;SDS011;72786;53.546;9.910;2023-11-18T05:13:31;13.82;;;5.07;;
82985;SDS011;72786;53.546;9.910;2023-11-18T05:15:58;14.65;;;5.35;;
82985;SDS011;72786;53.546;9.910;2023-11-18T05:18:25;12.15;;;4.93;;
82985;SDS011;72786;53.546;9.910;2023-11-18T05:20:56;15.07;;;5.78;;
82985;SDS011;72786;53.546;9.910;2023-11-18T05:23:23;12.57;;;5.35;;
82985;SDS011;72786;53.546;9.910;2023-11-18T05:25:50;10.43;;;4.43;;
82985;SDS011;72786;53.546;9.910;2023-11-18T05:28:16;12.43;;;5.32;;
82985;SDS011;72786;53.546;9.910;2023-11-18T05:30:43;11.20;;;5.25;;
82985;SDS011;72786;53.546;9.910;2023-11-18T05:33:10;11.82;;;5.43;;
82985;SDS011;72786;53.546;9.910;2023-11-18T05:35:41;12.13;;;5.05;;
82985;SDS011;72786;53.546;9.910;2023-11-18T05:38:18;12.07;;;5.30;;
82985;SDS011;72786;53.546;9.910;2023-11-18T05:40:48;14.15;;;5.47;;
82985;SDS011;72786;53.546;9.910;2023-11-18T05:43:24;10.52;;;4.68;;
82985;SDS011;72786;53.546;9.910;2023-11-18T05:45:53;12.93;;;5.47;;
82985;SDS011;72786;53.546;9.910;2023-11-18T05:48:39;12.60;;;5.30;;
82985;SDS011;72786;53.546;9.910;2023-11-18T05:51:09;13.48;;;5.60;;
82985;SDS011;72786;53.546;9.910;2023-11-18T05:53:40;11.98;;;4.70;;
82985;SDS011;72786;53.546;9.910;2023-11-18T05:56:08;12.68;;;5.20;;
82985;SDS011;72786;53.546;9.910;2023-11-18T05:58:34;11.55;;;4.93;;
82985;SDS011;72786;53.546;9.910;2023-11-18T06:01:01;10.85;;;4.80;;
82985;SDS011;72786;53.546;9.910;2023-11-18T06:03:28;14.70;;;5.07;;
82985;SDS011;72786;53.546;9.910;2023-11-18T06:05:54;11.40;;;4.50;;
82985;SDS011;72786;53.546;9.910;2023-11-18T06:08:22;13.95;;;5.55;;
82985;SDS011;72786;53.546;9.910;2023-11-18T06:10:49;12.85;;;5.50;;
82985;SDS011;72786;53.546;9.910;2023-11-18T06:13:17;13.45;;;5.28;;
82985;SDS011;72786;53.546;9.910;2023-11-18T06:15:44;13.50;;;6.85;;
82985;SDS011;72786;53.546;9.910;2023-11-18T06:18:10;15.43;;;6.15;;
82985;SDS011;72786;53.546;9.910;2023-11-18T06:20:37;14.45;;;6.10;;
82985;SDS011;72786;53.546;9.910;2023-11-18T06:23:04;12.50;;;5.82;;
82985;SDS011;72786;53.546;9.910;2023-11-18T06:25:31;14.77;;;5.90;;
82985;SDS011;72786;53.546;9.910;2023-11-18T06:27:57;16.65;;;5.68;;
82985;SDS011;72786;53.546;9.910;2023-11-18T06:30:24;15.48;;;6.70;;
82985;SDS011;72786;53.546;9.910;2023-11-18T06:32:52;16.00;;;6.60;;
82985;SDS011;72786;53.546;9.910;2023-11-18T06:35:18;17.35;;;6.28;;
82985;SDS011;72786;53.546;9.910;2023-11-18T06:37:47;16.80;;;6.50;;
82985;SDS011;72786;53.546;9.910;2023-11-18T06:40:14;15.00;;;6.50;;
82985;SDS011;72786;53.546;9.910;2023-11-18T06:42:45;17.33;;;6.40;;
82985;SDS011;72786;53.546;9.910;2023-11-18T06:45:14;18.35;;;6.28;;
82985;SDS011;72786;53.546;9.910;2023-11-18T06:47:41;14.10;;;6.53;;
82985;SDS011;72786;53.546;9.910;2023-11-18T06:50:11;16.25;;;6.25;;
82985;SDS011;72786;53.546;9.910;2023-11-18T06:52:40;15.90;;;6.82;;
82985;SDS011;72786;53.546;9.910;2023-11-18T06:55:14;16.77;;;6.75;;
82985;SDS011;72786;53.546;9.910;2023-11-18T06:57:41;15.77;;;6.80;;
82985;SDS011;72786;53.546;9.910;2023-11-18T07:00:09;16.80;;;6.45;;
82985;SDS011;72786;53.546;9.910;2023-11-18T07:02:37;13.82;;;6.50;;
82985;SDS011;72786;53.546;9.910;2023-11-18T07:05:04;14.73;;;6.60;;
82985;SDS011;72786;53.546;9.910;2023-11-18T07:07:32;16.45;;;6.28;;
82985;SDS011;72786;53.546;9.910;2023-11-18T07:09:58;14.85;;;6.78;;
82985;SDS011;72786;53.546;9.910;2023-11-18T07:12:24;14.82;;;6.70;;
82985;SDS011;72786;53.546;9.910;2023-11-18T07:14:51;14.38;;;6.05;;
82985;SDS011;72786;53.546;9.910;2023-11-18T07:17:17;16.55;;;6.32;;
82985;SDS011;72786;53.546;9.910;2023-11-18T07:19:47;14.63;;;5.90;;
82985;SDS011;72786;53.546;9.910;2023-11-18T07:22:13;15.90;;;5.68;;
82985;SDS011;72786;53.546;9.910;2023-11-18T07:24:41;12.75;;;5.30;;
82985;SDS011;72786;53.546;9.910;2023-11-18T07:27:07;14.52;;;5.78;;
82985;SDS011;72786;53.546;9.910;2023-11-18T07:29:37;13.65;;;5.68;;
82985;SDS011;72786;53.546;9.910;2023-11-18T07:32:04;17.48;;;6.13;;
82985;SDS011;72786;53.546;9.910;2023-11-18T07:34:32;15.50;;;6.07;;
82985;SDS011;72786;53.546;9.910;2023-11-18T07:37:01;15.93;;;6.03;;
82985;SDS011;72786;53.546;9.910;2023-11-18T07:39:28;14.20;;;6.05;;
82985;SDS011;72786;53.546;9.910;2023-11-18T07:42:11;15.45;;;6.78;;
82985;SDS011;72786;53.546;9.910;2023-11-18T07:44:38;17.33;;;6.00;;
82985;SDS011;72786;53.546;9.910;2023-11-18T07:47:07;15.43;;;5.95;;
82985;SDS011;72786;53.546;9.910;2023-11-18T07:49:34;16.70;;;7.25;;
82985;SDS011;72786;53.546;9.910;2023-11-18T07:52:02;15.93;;;5.60;;
82985;SDS011;72786;53.546;9.910;2023-11-18T07:54:29;14.57;;;5.82;;
82985;SDS011;72786;53.546;9.910;2023-11-18T07:56:55;15.32;;;6.35;;
82985;SDS011;72786;53.546;9.910;2023-11-18T07:59:22;16.45;;;6.88;;
82985;SDS011;72786;53.546;9.910;2023-11-18T08:01:50;16.50;;;6.18;;
82985;SDS011;72786;53.546;9.910;2023-11-18T08:04:16;12.82;;;6.03;;
82985;SDS011;72786;53.546;9.910;2023-11-18T08:06:47;16.23;;;5.57;;
82985;SDS011;72786;53.546;9.910;2023-11-18T08:09:14;11.48;;;5.35;;
82985;SDS011;72786;53.546;9.910;2023-11-18T08:11:40;14.25;;;5.88;;
82985;SDS011;72786;53.546;9.910;2023-11-18T08:14:07;13.18;;;5.53;;
82985;SDS011;72786;53.546;9.910;2023-11-18T08:16:34;13.10;;;5.40;;
82985;SDS011;72786;53.546;9.910;2023-11-18T08:19:01;17.05;;;5.50;;
82985;SDS011;72786;53.546;9.910;2023-11-18T08:21:34;19.40;;;6.22;;
82985;SDS011;72786;53.546;9.910;2023-11-18T08:24:01;13.48;;;4.97;;
82985;SDS011;72786;53.546;9.910;2023-11-18T08:26:30;13.65;;;4.53;;
82985;SDS011;72786;53.546;9.910;2023-11-18T08:28:56;14.52;;;5.03;;
82985;SDS011;72786;53.546;9.910;2023-11-18T08:31:23;16.80;;;4.55;;
82985;SDS011;72786;53.546;9.910;2023-11-18T08:33:49;12.55;;;5.10;;
82985;SDS011;72786;53.546;9.910;2023-11-18T08:36:16;10.57;;;4.00;;
82985;SDS011;72786;53.546;9.910;2023-11-18T08:38:43;10.30;;;3.63;;
82985;SDS011;72786;53.546;9.910;2023-11-18T08:41:11;11.90;;;4.00;;
82985;SDS011;72786;53.546;9.910;2023-11-18T08:43:38;11.48;;;4.25;;
82985;SDS011;72786;53.546;9.910;2023-11-18T08:46:07;28.70;;;10.15;;
82985;SDS011;72786;53.546;9.910;2023-11-18T08:48:34;10.98;;;4.15;;
82985;SDS011;72786;53.546;9.910;2023-11-18T08:51:00;10.45;;;4.32;;
82985;SDS011;72786;53.546;9.910;2023-11-18T08:53:27;10.48;;;4.32;;
82985;SDS011;72786;53.546;9.910;2023-11-18T08:55:54;9.40;;;4.32;;
82985;SDS011;72786;53.546;9.910;2023-11-18T08:58:22;13.73;;;5.07;;
82985;SDS011;72786;53.546;9.910;2023-11-18T09:00:50;11.40;;;4.88;;
82985;SDS011;72786;53.546;9.910;2023-11-18T09:03:19;10.55;;;4.68;;
82985;SDS011;72786;53.546;9.910;2023-11-18T09:05:55;9.27;;;4.00;;
82985;SDS011;72786;53.546;9.910;2023-11-18T09:08:23;10.85;;;4.45;;
82985;SDS011;72786;53.546;9.910;2023-11-18T09:10:50;10.95;;;4.57;;
82985;SDS011;72786;53.546;9.910;2023-11-18T09:13:23;11.38;;;4.57;;
82985;SDS011;72786;53.546;9.910;2023-11-18T09:16:04;10.15;;;4.75;;
82985;SDS011;72786;53.546;9.910;2023-11-18T09:18:36;9.32;;;4.65;;
82985;SDS011;72786;53.546;9.910;2023-11-18T09:21:08;8.18;;;4.22;;
82985;SDS011;72786;53.546;9.910;2023-11-18T09:23:41;9.25;;;4.15;;
82985;SDS011;72786;53.546;9.910;2023-11-18T09:26:08;9.73;;;4.32;;
82985;SDS011;72786;53.546;9.910;2023-11-18T09:28:37;8.65;;;4.00;;
82985;SDS011;72786;53.546;9.910;2023-11-18T09:31:04;7.65;;;3.95;;
82985;SDS011;72786;53.546;9.910;2023-11-18T09:33:31;8.95;;;4.00;;
82985;SDS011;72786;53.546;9.910;2023-11-18T09:36:03;9.73;;;4.47;;
82985;SDS011;72786;53.546;9.910;2023-11-18T09:38:34;9.15;;;4.43;;
82985;SDS011;72786;53.546;9.910;2023-11-18T09:41:03;8.23;;;4.15;;
82985;SDS011;72786;53.546;9.910;2023-11-18T09:43:33;11.35;;;5.28;;
82985;SDS011;72786;53.546;9.910;2023-11-18T09:46:12;9.75;;;4.78;;
82985;SDS011;72786;53.546;9.910;2023-11-18T09:48:46;8.80;;;4.20;;
82985;SDS011;72786;53.546;9.910;2023-11-18T09:51:23;10.38;;;4.60;;
82985;SDS011;72786;53.546;9.910;2023-11-18T09:53:51;9.02;;;4.00;;
82985;SDS011;72786;53.546;9.910;2023-11-18T09:56:22;8.90;;;3.88;;
82985;SDS011;72786;53.546;9.910;2023-11-18T10:01:42;8.68;;;3.65;;
82985;SDS011;72786;53.546;9.910;2023-11-18T10:04:13;6.15;;;3.47;;
82985;SDS011;72786;53.546;9.910;2023-11-18T10:06:44;9.80;;;3.80;;
82985;SDS011;72786;53.546;9.910;2023-11-18T10:09:13;8.93;;;4.07;;
82985;SDS011;72786;53.546;9.910;2023-11-18T10:11:44;10.75;;;4.63;;
82985;SDS011;72786;53.546;9.910;2023-11-18T10:14:14;8.75;;;4.80;;
82985;SDS011;72786;53.546;9.910;2023-11-18T10:16:45;10.55;;;4.35;;
82985;SDS011;72786;53.546;9.910;2023-11-18T10:19:13;7.45;;;4.22;;
82985;SDS011;72786;53.546;9.910;2023-11-18T10:21:40;10.02;;;3.92;;
82985;SDS011;72786;53.546;9.910;2023-11-18T10:24:07;7.32;;;3.70;;
82985;SDS011;72786;53.546;9.910;2023-11-18T10:26:54;9.82;;;3.60;;
82985;SDS011;72786;53.546;9.910;2023-11-18T10:29:24;9.68;;;4.70;;
82985;SDS011;72786;53.546;9.910;2023-11-18T10:32:07;8.70;;;3.80;;
82985;SDS011;72786;53.546;9.910;2023-11-18T10:34:42;6.00;;;2.88;;
82985;SDS011;72786;53.546;9.910;2023-11-18T10:37:09;7.50;;;3.25;;
82985;SDS011;72786;53.546;9.910;2023-11-18T10:39:37;5.78;;;2.75;;
82985;SDS011;72786;53.546;9.910;2023-11-18T10:42:03;7.82;;;2.83;;
82985;SDS011;72786;53.546;9.910;2023-11-18T10:44:30;5.65;;;2.67;;
82985;SDS011;72786;53.546;9.910;2023-11-18T10:46:57;6.32;;;3.10;;
82985;SDS011;72786;53.546;9.910;2023-11-18T10:49:28;4.43;;;2.45;;
82985;SDS011;72786;53.546;9.910;2023-11-18T10:51:55;6.47;;;3.17;;
82985;SDS011;72786;53.546;9.910;2023-11-18T10:54:23;5.55;;;3.03;;
82985;SDS011;72786;53.546;9.910;2023-11-18T10:56:52;5.22;;;3.03;;
82985;SDS011;72786;53.546;9.910;2023-11-18T10:59:23;8.15;;;2.88;;
82985;SDS011;72786;53.546;9.910;2023-11-18T11:01:50;6.20;;;3.05;;
82985;SDS011;72786;53.546;9.910;2023-11-18T11:04:17;6.15;;;3.08;;
82985;SDS011;72786;53.546;9.910;2023-11-18T11:06:47;5.82;;;3.05;;
82985;SDS011;72786;53.546;9.910;2023-11-18T11:09:23;4.53;;;2.65;;
82985;SDS011;72786;53.546;9.910;2023-11-18T11:11:54;6.45;;;3.13;;
82985;SDS011;72786;53.546;9.910;2023-11-18T11:14:33;6.57;;;3.42;;
82985;SDS011;72786;53.546;9.910;2023-11-18T11:17:07;7.28;;;2.75;;
82985;SDS011;72786;53.546;9.910;2023-11-18T11:22:22;5.85;;;2.85;;
82985;SDS011;72786;53.546;9.910;2023-11-18T11:27:56;5.13;;;2.92;;
82985;SDS011;72786;53.546;9.910;2023-11-18T11:30:29;7.43;;;3.10;;
82985;SDS011;72786;53.546;9.910;2023-11-18T11:33:49;5.28;;;2.65;;
82985;SDS011;72786;53.546;9.910;2023-11-18T11:36:07;7.15;;;3.10;;
82985;SDS011;72786;53.546;9.910;2023-11-18T11:38:38;5.65;;;2.97;;
82985;SDS011;72786;53.546;9.910;2023-11-18T11:41:04;6.07;;;3.05;;
82985;SDS011;72786;53.546;9.910;2023-11-18T11:43:34;5.30;;;2.65;;
82985;SDS011;72786;53.546;9.910;2023-11-18T11:46:01;4.85;;;3.08;;
82985;SDS011;72786;53.546;9.910;2023-11-18T11:48:37;4.30;;;2.70;;
82985;SDS011;72786;53.546;9.910;2023-11-18T11:51:16;6.35;;;2.80;;
82985;SDS011;72786;53.546;9.910;2023-11-18T11:53:55;5.38;;;2.55;;
82985;SDS011;72786;53.546;9.910;2023-11-18T11:56:43;6.13;;;2.95;;
82985;SDS011;72786;53.546;9.910;2023-11-18T11:59:16;4.55;;;2.47;;
82985;SDS011;72786;53.546;9.910;2023-11-18T12:01:43;4.53;;;2.60;;
82985;SDS011;72786;53.546;9.910;2023-11-18T12:04:16;5.47;;;2.63;;
82985;SDS011;72786;53.546;9.910;2023-11-18T12:06:47;5.35;;;2.70;;
82985;SDS011;72786;53.546;9.910;2023-11-18T12:09:14;4.55;;;2.72;;
82985;SDS011;72786;53.546;9.910;2023-11-18T12:11:46;5.60;;;3.10;;
82985;SDS011;72786;53.546;9.910;2023-11-18T12:14:15;5.18;;;2.80;;
82985;SDS011;72786;53.546;9.910;2023-11-18T12:17:01;6.60;;;3.20;;
82985;SDS011;72786;53.546;9.910;2023-11-18T12:19:34;4.97;;;2.40;;
82985;SDS011;72786;53.546;9.910;2023-11-18T12:24:44;6.65;;;3.17;;
82985;SDS011;72786;53.546;9.910;2023-11-18T12:27:13;6.15;;;2.53;;
82985;SDS011;72786;53.546;9.910;2023-11-18T12:29:43;4.35;;;2.50;;
82985;SDS011;72786;53.546;9.910;2023-11-18T12:32:10;4.72;;;2.45;;
82985;SDS011;72786;53.546;9.910;2023-11-18T12:34:49;5.47;;;2.75;;
82985;SDS011;72786;53.546;9.910;2023-11-18T12:43:03;6.53;;;2.80;;
82985;SDS011;72786;53.546;9.910;2023-11-18T12:45:43;6.80;;;2.72;;
82985;SDS011;72786;53.546;9.910;2023-11-18T12:48:26;5.53;;;2.72;;
82985;SDS011;72786;53.546;9.910;2023-11-18T12:50:58;5.18;;;2.55;;
82985;SDS011;72786;53.546;9.910;2023-11-18T12:53:26;6.78;;;2.88;;
82985;SDS011;72786;53.546;9.910;2023-11-18T12:55:54;5.38;;;2.67;;
82985;SDS011;72786;53.546;9.910;2023-11-18T12:58:22;4.97;;;2.45;;
82985;SDS011;72786;53.546;9.910;2023-11-18T13:00:49;5.15;;;2.58;;
82985;SDS011;72786;53.546;9.910;2023-11-18T13:03:16;7.07;;;2.65;;
82985;SDS011;72786;53.546;9.910;2023-11-18T13:05:44;4.38;;;2.08;;
82985;SDS011;72786;53.546;9.910;2023-11-18T13:08:11;4.28;;;2.10;;
82985;SDS011;72786;53.546;9.910;2023-11-18T13:10:41;4.28;;;2.20;;
82985;SDS011;72786;53.546;9.910;2023-11-18T13:13:08;4.45;;;2.10;;
82985;SDS011;72786;53.546;9.910;2023-11-18T13:15:35;4.22;;;1.90;;
82985;SDS011;72786;53.546;9.910;2023-11-18T13:18:03;6.60;;;2.20;;
82985;SDS011;72786;53.546;9.910;2023-11-18T13:20:33;3.85;;;1.85;;
82985;SDS011;72786;53.546;9.910;2023-11-18T13:23:02;4.07;;;1.83;;
82985;SDS011;72786;53.546;9.910;2023-11-18T13:25:35;3.72;;;1.98;;
82985;SDS011;72786;53.546;9.910;2023-11-18T13:28:03;3.00;;;1.70;;
82985;SDS011;72786;53.546;9.910;2023-11-18T13:30:39;3.92;;;1.92;;
82985;SDS011;72786;53.546;9.910;2023-11-18T13:33:07;3.17;;;1.75;;
82985;SDS011;72786;53.546;9.910;2023-11-18T13:35:35;4.18;;;1.85;;
82985;SDS011;72786;53.546;9.910;2023-11-18T13:38:02;4.03;;;1.85;;
82985;SDS011;72786;53.546;9.910;2023-11-18T13:40:43;4.35;;;2.00;;
82985;SDS011;72786;53.546;9.910;2023-11-18T13:43:10;3.42;;;1.80;;
82985;SDS011;72786;53.546;9.910;2023-11-18T13:45:37;4.25;;;1.80;;
82985;SDS011;72786;53.546;9.910;2023-11-18T13:48:05;4.03;;;1.77;;
82985;SDS011;72786;53.546;9.910;2023-11-18T13:50:33;4.50;;;2.05;;
82985;SDS011;72786;53.546;9.910;2023-11-18T13:53:01;3.92;;;1.90;;
82985;SDS011;72786;53.546;9.910;2023-11-18T13:55:28;5.03;;;2.30;;
82985;SDS011;72786;53.546;9.910;2023-11-18T13:57:57;4.25;;;2.20;;
82985;SDS011;72786;53.546;9.910;2023-11-18T14:00:25;4.88;;;2.15;;
82985;SDS011;72786;53.546;9.910;2023-11-18T14:02:58;4.88;;;2.08;;
82985;SDS011;72786;53.546;9.910;2023-11-18T14:05:26;5.15;;;2.17;;
82985;SDS011;72786;53.546;9.910;2023-11-18T14:07:53;4.95;;;2.20;;
82985;SDS011;72786;53.546;9.910;2023-11-18T14:10:25;5.38;;;2.30;;
82985;SDS011;72786;53.546;9.910;2023-11-18T14:13:02;7.22;;;2.75;;
82985;SDS011;72786;53.546;9.910;2023-11-18T14:15:32;3.92;;;1.73;;
82985;SDS011;72786;53.546;9.910;2023-11-18T14:18:02;5.22;;;2.20;;
82985;SDS011;72786;53.546;9.910;2023-11-18T14:20:35;5.00;;;2.83;;
82985;SDS011;72786;53.546;9.910;2023-11-18T14:23:02;5.57;;;2.50;;
82985;SDS011;72786;53.546;9.910;2023-11-18T14:25:32;5.85;;;2.42;;
82985;SDS011;72786;53.546;9.910;2023-11-18T14:28:00;7.10;;;2.38;;
82985;SDS011;72786;53.546;9.910;2023-11-18T14:30:28;5.40;;;2.55;;
82985;SDS011;72786;53.546;9.910;2023-11-18T14:32:56;6.00;;;2.67;;
82985;SDS011;72786;53.546;9.910;2023-11-18T14:35:23;7.50;;;3.33;;
82985;SDS011;72786;53.546;9.910;2023-11-18T14:37:52;5.80;;;2.65;;
82985;SDS011;72786;53.546;9.910;2023-11-18T14:40:19;6.53;;;3.42;;
82985;SDS011;72786;53.546;9.910;2023-11-18T14:42:46;9.10;;;3.72;;
82985;SDS011;72786;53.546;9.910;2023-11-18T14:45:16;7.03;;;3.15;;
82985;SDS011;72786;53.546;9.910;2023-11-18T14:47:43;8.13;;;3.25;;
82985;SDS011;72786;53.546;9.910;2023-11-18T14:50:11;7.43;;;3.90;;
82985;SDS011;72786;53.546;9.910;2023-11-18T14:52:44;8.23;;;4.03;;
82985;SDS011;72786;53.546;9.910;2023-11-18T14:55:20;8.40;;;3.67;;
82985;SDS011;72786;53.546;9.910;2023-11-18T14:57:47;9.02;;;2.97;;
82985;SDS011;72786;53.546;9.910;2023-11-18T15:00:14;7.00;;;3.20;;
82985;SDS011;72786;53.546;9.910;2023-11-18T15:02:48;8.35;;;3.45;;
82985;SDS011;72786;53.546;9.910;2023-11-18T15:05:17;8.02;;;3.42;;
82985;SDS011;72786;53.546;9.910;2023-11-18T15:07:52;7.55;;;3.55;;
82985;SDS011;72786;53.546;9.910;2023-11-18T15:10:21;9.90;;;4.00;;